Time;durP1;ratioP1;P1;durP2;ratioP2;P2;SDS_P1;SDS_P2;PMS_P1;PMS_P2;Temp;Humidity;BMP_temperature;BMP_pressure;BME280_temperature;BME280_humidity;BME280_pressure;Samples;Min_cycle;Max_cycle;Signal;HPM_P1;HPM_P2
2022/02/25 00:00:11;;;;;;;4.53;2.53;;;4.10;99.90;;;;;;4972700;28;20168;-73
2022/02/25 00:02:37;;;;;;;0.87;0.70;;;4.00;99.90;;;;;;4974052;28;20200;-73
2022/02/25 00:05:03;;;;;;;1.67;0.50;;;4.00;99.90;;;;;;4971672;28;20422;-73
2022/02/25 00:07:29;;;;;;;1.33;0.60;;;4.00;99.90;;;;;;4973751;28;20577;-71
2022/02/25 00:09:54;;;;;;;0.87;0.80;;;4.00;99.90;;;;;;4972642;28;20498;-71
2022/02/25 00:12:20;;;;;;;0.90;0.90;;;4.00;99.90;;;;;;4974284;28;20204;-72
2022/02/25 00:14:45;;;;;;;6.53;1.00;;;4.00;99.90;;;;;;4972218;28;20180;-72
2022/02/25 00:17:11;;;;;;;0.90;0.57;;;3.90;99.90;;;;;;4971643;28;20209;-73
2022/02/25 00:19:36;;;;;;;0.60;0.50;;;3.80;99.90;;;;;;4972173;28;20265;-72
2022/02/25 00:22:02;;;;;;;1.33;0.80;;;3.90;99.90;;;;;;4972234;28;20197;-72
2022/02/25 00:24:28;;;;;;;0.87;0.80;;;3.90;99.90;;;;;;4971307;28;20720;-73
2022/02/25 00:26:53;;;;;;;1.93;0.80;;;3.80;99.90;;;;;;4971626;28;20292;-72
2022/02/25 00:29:19;;;;;;;2.93;0.60;;;3.80;99.90;;;;;;4971523;28;20279;-72
2022/02/25 00:31:45;;;;;;;0.70;0.60;;;3.80;99.90;;;;;;4971357;28;20209;-71
2022/02/25 00:34:10;;;;;;;1.57;1.10;;;3.70;99.90;;;;;;4971275;28;20258;-72
2022/02/25 00:36:36;;;;;;;2.30;0.70;;;3.70;99.90;;;;;;4972108;28;20301;-72
2022/02/25 00:39:02;;;;;;;2.17;1.73;;;3.70;99.90;;;;;;4939342;28;20531;-72
2022/02/25 00:41:28;;;;;;;1.40;0.90;;;3.70;99.90;;;;;;4971505;28;20192;-70
2022/02/25 00:43:53;;;;;;;2.53;0.90;;;3.70;99.90;;;;;;4971490;28;20407;-72
2022/02/25 00:46:19;;;;;;;2.10;0.87;;;3.70;99.90;;;;;;4955728;28;20184;-73
2022/02/25 00:48:44;;;;;;;5.50;1.20;;;3.70;99.90;;;;;;4973179;28;20186;-72
2022/02/25 00:51:10;;;;;;;2.83;0.77;;;3.70;99.90;;;;;;4971225;28;20637;-72
2022/02/25 00:53:35;;;;;;;2.73;1.07;;;3.70;99.90;;;;;;4970431;28;20199;-72
2022/02/25 00:56:01;;;;;;;3.03;0.90;;;3.70;99.90;;;;;;4971343;28;20236;-72
2022/02/25 00:58:27;;;;;;;1.73;1.07;;;3.70;99.90;;;;;;4972871;28;20193;-72
2022/02/25 05:32:46;;;;;;;0.80;0.57;;;2.30;99.90;;;;;;5209750;23;20510;-71
2022/02/25 05:35:14;;;;;;;6.73;1.20;;;2.30;99.90;;;;;;4971554;28;20398;-73
2022/02/25 05:37:41;;;;;;;1.87;1.30;;;2.30;99.90;;;;;;4972178;28;20459;-73
2022/02/25 05:40:09;;;;;;;1.83;1.43;;;2.40;99.90;;;;;;4971573;28;20437;-72
2022/02/25 05:42:35;;;;;;;1.50;0.93;;;2.40;99.90;;;;;;4968452;28;20431;-72
2022/02/25 05:45:02;;;;;;;3.37;1.17;;;2.40;99.90;;;;;;4971014;28;21019;-73
2022/02/25 05:47:28;;;;;;;2.33;1.57;;;2.40;99.90;;;;;;4971879;28;20517;-73
2022/02/25 05:49:54;;;;;;;5.17;0.90;;;2.40;99.90;;;;;;4972560;28;20481;-72
2022/02/25 05:52:19;;;;;;;3.67;2.73;;;2.50;99.90;;;;;;4971516;28;20449;-74
2022/02/25 05:54:45;;;;;;;1.53;1.20;;;2.50;99.90;;;;;;4971054;28;20396;-73
2022/02/25 05:57:11;;;;;;;6.80;1.53;;;2.60;99.90;;;;;;4971631;28;20290;-74
2022/02/25 05:59:36;;;;;;;3.17;1.60;;;2.70;99.90;;;;;;4971694;28;20212;-74
2022/02/25 06:02:03;;;;;;;5.20;1.10;;;2.70;99.90;;;;;;4970414;28;20201;-74
2022/02/25 06:04:28;;;;;;;6.50;1.53;;;2.70;99.90;;;;;;4971346;28;20199;-74
2022/02/25 06:06:54;;;;;;;3.93;1.77;;;2.70;99.90;;;;;;4969741;28;20425;-74
2022/02/25 06:09:19;;;;;;;6.30;1.40;;;2.60;99.90;;;;;;4971547;28;20180;-74
2022/02/25 06:11:45;;;;;;;5.60;1.20;;;2.60;99.90;;;;;;4970966;28;20199;-74
2022/02/25 06:14:11;;;;;;;2.40;1.00;;;2.50;99.90;;;;;;4970705;28;20184;-74
2022/02/25 06:16:37;;;;;;;2.07;1.00;;;2.50;99.90;;;;;;4971588;28;20205;-74
2022/02/25 06:19:02;;;;;;;1.70;1.20;;;2.40;99.90;;;;;;4970679;28;20475;-75
2022/02/25 06:21:28;;;;;;;6.53;0.90;;;2.40;99.90;;;;;;4970245;28;20198;-74
2022/02/25 06:23:54;;;;;;;3.40;1.10;;;2.30;99.90;;;;;;4965006;28;20235;-74
2022/02/25 06:26:19;;;;;;;9.80;1.40;;;2.30;99.90;;;;;;4964111;28;20342;-75
2022/02/25 06:28:45;;;;;;;7.70;1.93;;;2.20;99.90;;;;;;4988084;28;20195;-74
2022/02/25 06:31:10;;;;;;;2.53;1.93;;;2.20;99.90;;;;;;4988370;28;20206;-74
2022/02/25 06:33:37;;;;;;;6.07;1.10;;;2.20;99.90;;;;;;4988444;28;20205;-74
2022/02/25 06:36:03;;;;;;;8.97;1.50;;;2.20;99.90;;;;;;4988912;28;20466;-75
2022/02/25 06:38:28;;;;;;;12.37;1.93;;;2.10;99.90;;;;;;4989540;28;20190;-75
2022/02/25 06:40:55;;;;;;;10.00;1.10;;;2.10;99.90;;;;;;4988572;28;20201;-75
2022/02/25 06:43:20;;;;;;;6.73;1.97;;;2.10;99.90;;;;;;4988204;28;20214;-75
2022/02/25 06:45:46;;;;;;;4.20;1.50;;;2.10;99.90;;;;;;4990931;28;20429;-75
2022/02/25 06:48:12;;;;;;;2.40;0.97;;;2.20;99.90;;;;;;4990644;28;20176;-74
2022/02/25 06:50:37;;;;;;;2.90;1.40;;;2.20;99.90;;;;;;4990900;28;20416;-74
2022/02/25 06:53:03;;;;;;;1.57;1.00;;;2.30;99.90;;;;;;4989419;28;20180;-75
2022/02/25 06:55:29;;;;;;;2.10;1.20;;;2.30;99.90;;;;;;4990674;28;20188;-74
2022/02/25 06:57:54;;;;;;;8.03;2.00;;;2.40;99.90;;;;;;4990846;28;20186;-74
2022/02/25 07:00:23;;;;;;;7.17;1.40;;;2.50;99.90;;;;;;4990438;28;20184;-74
2022/02/25 07:02:50;;;;;;;3.53;1.50;;;2.60;99.90;;;;;;4989996;28;20695;-73
2022/02/25 07:05:17;;;;;;;10.00;1.57;;;2.70;99.90;;;;;;4989934;28;21001;-74
2022/02/25 07:07:42;;;;;;;4.70;1.50;;;2.80;99.90;;;;;;4990637;28;20447;-74
2022/02/25 07:10:08;;;;;;;3.93;1.10;;;3.00;99.90;;;;;;4990148;28;20543;-74
2022/02/25 07:12:34;;;;;;;6.27;0.90;;;3.00;99.90;;;;;;4990603;28;20450;-74
2022/02/25 07:15:00;;;;;;;7.20;1.30;;;3.10;99.90;;;;;;4987951;28;20199;-75
2022/02/25 07:17:25;;;;;;;9.20;1.53;;;3.20;99.90;;;;;;4990615;28;20562;-75
2022/02/25 07:19:51;;;;;;;4.40;1.43;;;3.30;99.90;;;;;;4990467;28;20489;-75
2022/02/25 07:22:16;;;;;;;6.03;1.00;;;3.40;99.90;;;;;;4990031;28;20207;-74
2022/02/25 07:24:42;;;;;;;6.10;1.10;;;3.60;99.90;;;;;;4989985;28;20226;-75
2022/02/25 07:27:07;;;;;;;4.57;1.10;;;4.60;99.90;;;;;;4989915;28;20540;-75
2022/02/25 07:29:33;;;;;;;2.83;0.80;;;6.20;99.90;;;;;;4990535;28;20617;-75
2022/02/25 07:31:59;;;;;;;3.37;0.90;;;7.80;99.90;;;;;;4990252;28;20222;-75
2022/02/25 07:34:26;;;;;;;4.20;1.37;;;8.90;99.90;;;;;;4989755;28;20654;-74
2022/02/25 07:36:51;;;;;;;7.37;1.27;;;10.10;99.90;;;;;;4990017;28;20215;-75
2022/02/25 07:39:17;;;;;;;3.63;1.23;;;10.40;99.90;;;;;;4992151;28;20418;-75
2022/02/25 07:41:42;;;;;;;7.43;1.33;;;10.70;99.90;;;;;;4993751;28;20199;-74
2022/02/25 07:44:08;;;;;;;6.77;2.07;;;11.30;99.90;;;;;;4993442;28;20178;-74
2022/02/25 07:46:33;;;;;;;7.60;2.53;;;11.90;99.90;;;;;;4993721;28;20190;-73
2022/02/25 07:48:59;;;;;;;5.97;1.63;;;12.20;99.90;;;;;;4992918;28;20667;-73
2022/02/25 07:51:27;;;;;;;8.57;2.77;;;12.00;99.90;;;;;;4993284;28;20200;-73
2022/02/25 07:53:53;;;;;;;5.30;2.00;;;12.30;99.90;;;;;;4993049;28;21111;-73
2022/02/25 07:56:18;;;;;;;4.27;2.00;;;12.50;99.90;;;;;;4991415;28;20458;-73
2022/02/25 07:58:44;;;;;;;7.13;1.80;;;12.40;99.90;;;;;;4993647;28;20434;-73
2022/02/25 08:01:10;;;;;;;6.30;2.10;;;12.20;99.90;;;;;;4992952;28;20196;-74
2022/02/25 08:03:36;;;;;;;6.70;1.90;;;12.00;99.90;;;;;;4992779;28;20310;-73
2022/02/25 08:06:02;;;;;;;3.60;1.80;;;11.60;99.90;;;;;;4993097;28;20457;-74
2022/02/25 08:08:27;;;;;;;6.17;1.30;;;11.40;99.90;;;;;;4992963;28;20660;-73
2022/02/25 08:10:53;;;;;;;8.57;1.87;;;11.00;99.90;;;;;;4992979;28;20279;-71
2022/02/25 08:13:19;;;;;;;9.70;1.47;;;10.70;99.90;;;;;;4992528;28;20262;-73
2022/02/25 08:15:45;;;;;;;6.93;1.23;;;10.10;99.90;;;;;;4993146;28;20182;-73
2022/02/25 08:18:11;;;;;;;7.23;1.27;;;10.00;99.90;;;;;;4992229;28;20424;-72
2022/02/25 08:20:37;;;;;;;11.30;1.53;;;9.90;99.90;;;;;;4992768;28;20181;-73
2022/02/25 08:23:04;;;;;;;8.00;1.00;;;10.10;99.90;;;;;;4992019;28;20690;-74
2022/02/25 08:25:31;;;;;;;3.67;1.13;;;10.10;99.90;;;;;;4993153;28;20508;-74
2022/02/25 08:27:57;;;;;;;6.93;1.30;;;9.90;99.90;;;;;;4992619;28;20426;-74
2022/02/25 08:30:22;;;;;;;5.20;0.90;;;9.30;99.90;;;;;;4991616;28;20435;-74
2022/02/25 08:32:49;;;;;;;6.70;1.27;;;9.30;99.90;;;;;;4991639;28;20463;-73
2022/02/25 08:35:16;;;;;;;3.20;0.80;;;9.60;99.90;;;;;;4992980;28;20170;-74
2022/02/25 08:37:43;;;;;;;4.53;0.93;;;9.70;99.90;;;;;;4992962;28;20480;-74
2022/02/25 08:40:09;;;;;;;11.80;1.23;;;9.70;99.90;;;;;;4992127;28;20572;-74
2022/02/25 08:42:37;;;;;;;4.43;1.60;;;9.60;99.90;;;;;;4992676;28;20930;-73
2022/02/25 08:45:05;;;;;;;15.20;1.80;;;9.50;99.90;;;;;;4991650;28;20424;-74
2022/02/25 08:47:31;;;;;;;7.63;1.33;;;9.30;99.90;;;;;;4992004;28;20425;-74
2022/02/25 08:49:56;;;;;;;6.40;1.00;;;9.40;99.90;;;;;;4990936;28;20444;-73
2022/02/25 08:52:22;;;;;;;5.20;1.40;;;9.50;99.90;;;;;;4992215;28;20447;-74
2022/02/25 08:54:47;;;;;;;2.40;0.90;;;9.30;99.90;;;;;;4991862;28;20714;-73
2022/02/25 08:57:13;;;;;;;5.23;1.97;;;9.30;99.90;;;;;;4991268;28;20211;-73
2022/02/25 08:59:39;;;;;;;11.07;1.27;;;9.20;99.90;;;;;;4992522;28;20202;-74
2022/02/25 09:02:06;;;;;;;10.47;1.37;;;9.20;99.90;;;;;;4991931;28;20567;-74
2022/02/25 09:04:31;;;;;;;2.80;1.00;;;9.20;99.90;;;;;;4991136;28;20822;-74
2022/02/25 09:06:57;;;;;;;4.60;1.10;;;9.20;99.90;;;;;;4991700;28;20439;-73
2022/02/25 09:09:22;;;;;;;6.63;1.23;;;9.10;99.90;;;;;;4990672;28;20277;-74
2022/02/25 09:11:48;;;;;;;6.30;1.30;;;9.10;99.90;;;;;;4992046;28;20230;-74
2022/02/25 09:14:13;;;;;;;5.23;1.30;;;9.40;99.90;;;;;;4991006;28;20203;-73
2022/02/25 09:16:39;;;;;;;5.50;1.10;;;9.50;99.90;;;;;;4990748;28;20224;-73
2022/02/25 09:19:07;;;;;;;6.40;1.27;;;9.90;99.90;;;;;;4991350;28;20212;-74
2022/02/25 09:21:33;;;;;;;9.93;1.30;;;10.20;99.90;;;;;;4991686;28;20204;-74
2022/02/25 09:23:58;;;;;;;3.73;1.10;;;10.40;99.90;;;;;;4991243;28;20412;-74
2022/02/25 09:26:24;;;;;;;5.80;0.97;;;10.20;99.90;;;;;;4991255;28;20478;-74
2022/02/25 09:28:50;;;;;;;4.50;1.23;;;10.50;99.90;;;;;;4991879;28;20189;-74
2022/02/25 09:31:15;;;;;;;16.63;1.17;;;11.10;99.90;;;;;;4991042;28;20220;-74
2022/02/25 09:33:42;;;;;;;9.80;1.13;;;10.90;99.90;;;;;;4990955;28;20268;-74
2022/02/25 09:36:08;;;;;;;3.27;1.10;;;10.60;99.90;;;;;;4989980;28;20749;-74
2022/02/25 09:38:34;;;;;;;5.40;1.00;;;10.30;99.90;;;;;;4991443;28;20425;-74
2022/02/25 09:41:00;;;;;;;3.40;0.87;;;10.50;99.90;;;;;;4990397;28;20429;-74
2022/02/25 09:43:26;;;;;;;2.30;1.00;;;10.80;99.90;;;;;;4990912;28;20200;-74
2022/02/25 09:45:52;;;;;;;6.80;1.37;;;11.30;99.90;;;;;;4991593;28;20418;-74
2022/02/25 09:48:18;;;;;;;4.30;1.10;;;11.20;99.90;;;;;;4991193;28;20181;-74
2022/02/25 09:50:44;;;;;;;5.63;1.10;;;11.10;99.90;;;;;;4990442;28;20422;-74
2022/02/25 09:53:10;;;;;;;3.17;0.80;;;10.00;99.90;;;;;;4990552;28;20799;-74
2022/02/25 09:55:36;;;;;;;5.87;1.20;;;9.60;99.90;;;;;;4991211;28;20235;-74
2022/02/25 09:58:06;;;;;;;3.63;0.97;;;9.70;99.90;;;;;;4991326;28;20259;-74
2022/02/25 10:00:34;;;;;;;2.03;0.97;;;10.30;99.90;;;;;;4991178;28;20407;-74
2022/02/25 10:03:03;;;;;;;3.13;0.77;;;11.20;99.90;;;;;;4989248;28;20421;-74
2022/02/25 10:05:31;;;;;;;4.40;0.70;;;11.80;99.90;;;;;;4991349;28;20418;-74
2022/02/25 10:08:11;;;;;;;1.40;0.80;;;12.00;99.90;;;;;;4990942;28;20794;-74
2022/02/25 10:10:56;;;;;;;6.93;1.40;;;11.70;99.90;;;;;;4990791;28;20412;-73
2022/02/25 10:13:25;;;;;;;3.37;1.23;;;11.30;99.90;;;;;;4990240;28;20421;-74
2022/02/25 10:15:52;;;;;;;4.27;0.80;;;10.70;99.90;;;;;;4991001;28;20454;-74
2022/02/25 10:18:27;;;;;;;2.03;0.70;;;9.80;99.90;;;;;;4990215;28;20488;-74
2022/02/25 10:21:04;;;;;;;6.00;1.40;;;9.30;99.90;;;;;;4990557;28;20413;-73
2022/02/25 10:23:33;;;;;;;3.00;0.87;;;9.10;99.90;;;;;;4990408;28;20500;-74
2022/02/25 10:26:13;;;;;;;1.87;0.80;;;9.50;99.90;;;;;;4991190;28;20421;-74
2022/02/25 10:28:41;;;;;;;2.83;0.90;;;10.20;99.90;;;;;;4990926;28;20418;-74
2022/02/25 10:31:32;;;;;;;3.13;1.00;;;11.00;99.90;;;;;;4989701;28;20789;-74
2022/02/25 10:34:16;;;;;;;2.70;0.70;;;11.20;99.90;;;;;;4990089;28;20418;-74
2022/02/25 10:36:45;;;;;;;5.80;0.87;;;11.90;99.90;;;;;;4991112;28;20461;-74
2022/02/25 10:39:16;;;;;;;5.90;1.17;;;11.90;99.90;;;;;;4990302;28;20409;-74
2022/02/25 10:41:58;;;;;;;2.67;0.80;;;12.00;99.90;;;;;;4989959;28;20540;-74
2022/02/25 10:44:42;;;;;;;1.93;0.80;;;11.50;99.90;;;;;;4990193;28;20505;-74
2022/02/25 10:47:28;;;;;;;3.87;1.63;;;10.60;99.90;;;;;;4990396;28;20425;-74
2022/02/25 10:50:17;;;;;;;3.03;1.10;;;10.00;99.90;;;;;;4990501;28;20408;-74
2022/02/25 10:52:45;;;;;;;2.57;0.87;;;9.40;99.90;;;;;;4990706;28;20539;-74
2022/02/25 10:55:31;;;;;;;5.87;1.30;;;9.50;99.90;;;;;;4989962;28;20419;-75
2022/02/25 10:57:57;;;;;;;2.73;0.80;;;10.20;99.90;;;;;;4989741;28;20570;-75
2022/02/25 11:00:24;;;;;;;1.90;0.80;;;10.50;99.90;;;;;;4990440;28;20414;-74
2022/02/25 11:02:52;;;;;;;4.03;1.20;;;10.30;99.90;;;;;;4989709;28;20430;-74
2022/02/25 11:05:32;;;;;;;6.37;0.73;;;9.80;99.90;;;;;;4989862;28;20419;-74
2022/02/25 11:08:00;;;;;;;1.67;0.67;;;9.60;99.90;;;;;;4990372;28;20420;-75
2022/02/25 11:10:28;;;;;;;1.63;0.63;;;9.70;99.90;;;;;;4990317;28;20417;-74
2022/02/25 11:12:55;;;;;;;4.33;1.13;;;9.60;99.90;;;;;;4989676;28;20517;-74
2022/02/25 11:15:27;;;;;;;4.33;0.83;;;9.80;99.90;;;;;;4993854;28;20493;-74
2022/02/25 11:17:54;;;;;;;4.30;1.27;;;10.30;99.90;;;;;;4993991;28;21031;-74
2022/02/25 11:20:31;;;;;;;1.40;0.80;;;10.90;99.90;;;;;;4993846;28;20421;-74
2022/02/25 11:23:00;;;;;;;9.40;0.70;;;11.10;99.90;;;;;;4993365;28;21019;-74
2022/02/25 11:25:26;;;;;;;3.80;1.00;;;11.30;99.90;;;;;;4994503;28;20477;-74
2022/02/25 11:27:52;;;;;;;2.67;0.97;;;11.30;99.90;;;;;;4967447;28;20535;-74
2022/02/25 11:30:57;;;;;;;6.93;1.13;;;10.60;99.90;;;;;;4977329;28;20800;-74
2022/02/25 11:33:24;;;;;;;2.10;0.70;;;10.70;99.90;;;;;;4976524;28;20200;-74
2022/02/25 11:35:51;;;;;;;5.70;1.47;;;10.10;99.90;;;;;;4963298;28;20471;-74
2022/02/25 11:38:27;;;;;;;7.77;2.20;;;10.30;99.90;;;;;;4969371;28;20463;-74
2022/02/25 11:41:14;;;;;;;6.27;1.83;;;10.80;99.90;;;;;;4973669;28;20482;-74
2022/02/25 11:43:59;;;;;;;5.23;1.50;;;10.80;99.90;;;;;;4973462;28;20413;-74
2022/02/25 11:46:27;;;;;;;6.37;0.93;;;10.60;99.90;;;;;;4975099;28;20819;-75
2022/02/25 11:49:08;;;;;;;5.40;2.00;;;10.40;99.90;;;;;;4974438;28;20818;-74
2022/02/25 11:51:43;;;;;;;2.73;1.13;;;10.10;99.90;;;;;;4973898;28;20460;-74
2022/02/25 11:54:28;;;;;;;5.70;1.20;;;9.90;99.90;;;;;;4973263;28;20477;-74
2022/02/25 11:56:57;;;;;;;3.10;1.20;;;9.80;99.90;;;;;;4973357;28;20628;-74
2022/02/25 11:59:31;;;;;;;6.60;1.20;;;9.90;99.90;;;;;;4973862;28;20424;-74
2022/02/25 12:02:16;;;;;;;2.70;0.73;;;9.70;99.90;;;;;;4973547;28;20434;-74
2022/02/25 12:04:46;;;;;;;3.73;1.50;;;9.80;99.90;;;;;;4973553;28;20403;-74
2022/02/25 12:07:16;;;;;;;2.47;0.70;;;10.00;99.90;;;;;;4973581;28;20411;-75
2022/02/25 12:09:51;;;;;;;2.10;0.87;;;9.90;99.90;;;;;;4973940;28;20939;-74
2022/02/25 12:12:22;;;;;;;4.87;1.23;;;9.90;99.90;;;;;;4973557;28;20448;-74
2022/02/25 12:15:07;;;;;;;4.63;0.80;;;9.70;99.90;;;;;;4972967;28;20429;-74
2022/02/25 12:17:40;;;;;;;5.17;1.33;;;9.50;99.90;;;;;;4973704;28;20466;-74
2022/02/25 12:20:21;;;;;;;1.83;1.00;;;9.30;99.90;;;;;;4971404;28;20481;-74
2022/02/25 12:22:52;;;;;;;4.27;1.17;;;9.40;99.90;;;;;;4973000;28;20437;-73
2022/02/25 12:25:40;;;;;;;3.67;1.03;;;9.40;99.90;;;;;;4973032;28;20460;-75
2022/02/25 12:28:28;;;;;;;4.93;0.83;;;9.30;99.90;;;;;;4973312;28;20404;-75
2022/02/25 12:31:01;;;;;;;3.90;1.00;;;9.20;99.90;;;;;;4973200;28;20504;-74
2022/02/25 12:33:32;;;;;;;1.30;0.90;;;9.30;99.90;;;;;;4973028;28;20733;-75
2022/02/25 12:36:00;;;;;;;9.53;1.10;;;9.50;99.90;;;;;;4973092;28;20468;-74
2022/02/25 12:38:28;;;;;;;8.73;1.80;;;9.30;99.90;;;;;;4971699;28;20427;-74
2022/02/25 12:41:07;;;;;;;8.03;1.20;;;9.00;99.90;;;;;;4972747;28;20982;-75
2022/02/25 12:43:33;;;;;;;6.20;1.10;;;8.80;99.90;;;;;;4972421;28;20405;-74
2022/02/25 12:45:59;;;;;;;8.63;1.10;;;8.70;99.90;;;;;;4971596;28;20428;-74
2022/02/25 12:48:25;;;;;;;3.27;1.10;;;8.70;99.90;;;;;;4973124;28;20268;-74
2022/02/25 12:50:51;;;;;;;3.33;0.90;;;8.60;99.90;;;;;;4972756;28;20541;-74
2022/02/25 12:53:16;;;;;;;3.10;1.53;;;8.30;99.90;;;;;;4971413;28;20461;-74
2022/02/25 12:55:59;;;;;;;5.73;1.30;;;8.10;99.90;;;;;;4972877;28;20193;-74
2022/02/25 12:58:35;;;;;;;4.10;1.17;;;8.00;99.90;;;;;;4972907;28;20176;-74
2022/02/25 13:01:03;;;;;;;9.50;1.40;;;7.90;99.90;;;;;;4971924;28;20439;-74
2022/02/25 13:03:29;;;;;;;8.07;1.60;;;8.00;99.90;;;;;;4972344;28;20425;-74
2022/02/25 13:05:55;;;;;;;5.03;1.43;;;8.00;99.90;;;;;;4972688;28;20986;-74
2022/02/25 13:08:21;;;;;;;10.77;1.33;;;7.70;99.90;;;;;;4971375;28;20547;-74
2022/02/25 13:11:01;;;;;;;4.73;0.90;;;7.60;99.90;;;;;;4971484;28;20959;-74
2022/02/25 13:13:27;;;;;;;5.80;1.60;;;7.60;99.90;;;;;;4971673;28;20590;-74
2022/02/25 13:16:03;;;;;;;7.03;0.90;;;7.50;99.90;;;;;;4972715;28;20865;-75
2022/02/25 13:18:29;;;;;;;5.53;1.33;;;7.40;99.90;;;;;;4972681;28;20203;-74
2022/02/25 13:21:01;;;;;;;3.73;1.20;;;7.60;99.90;;;;;;4972361;28;20497;-74
2022/02/25 13:23:27;;;;;;;4.17;1.40;;;7.70;99.90;;;;;;4971188;28;20188;-75
2022/02/25 13:26:01;;;;;;;10.13;1.80;;;8.00;99.90;;;;;;4972300;28;20808;-74
2022/02/25 13:28:29;;;;;;;6.20;1.40;;;8.20;99.90;;;;;;4972083;28;20981;-75
2022/02/25 13:30:55;;;;;;;3.17;1.40;;;8.30;99.90;;;;;;4971515;28;20516;-74
2022/02/25 13:33:23;;;;;;;7.10;3.30;;;8.20;99.90;;;;;;4977163;28;20956;-74
2022/02/25 13:35:58;;;;;;;5.03;2.30;;;8.30;99.90;;;;;;4972073;28;20168;-74
2022/02/25 13:38:30;;;;;;;6.10;1.33;;;8.40;99.90;;;;;;4971003;28;20428;-75
2022/02/25 13:41:06;;;;;;;9.73;1.20;;;8.40;99.90;;;;;;4971833;28;20437;-74
2022/02/25 13:43:37;;;;;;;5.93;1.60;;;8.10;99.90;;;;;;4969601;28;20444;-75
2022/02/25 13:46:12;;;;;;;10.73;1.37;;;7.90;99.90;;;;;;4971250;28;20437;-75
2022/02/25 13:54:18;;;;;;;4.63;1.10;;;7.60;99.90;;;;;;4972492;28;20421;-74
2022/02/25 13:56:49;;;;;;;3.00;1.20;;;7.40;99.90;;;;;;4972411;28;20445;-74
2022/02/25 13:59:21;;;;;;;3.40;0.90;;;7.30;99.90;;;;;;4972124;28;20450;-75
2022/02/25 14:01:46;;;;;;;6.10;2.10;;;6.80;99.90;;;;;;4972679;28;20424;-75
2022/02/25 14:04:17;;;;;;;4.57;1.43;;;6.40;99.90;;;;;;4971813;28;20457;-75
2022/02/25 14:06:56;;;;;;;17.37;6.20;;;6.40;99.90;;;;;;4971776;28;20604;-75
2022/02/25 14:09:27;;;;;;;5.13;1.63;;;6.40;99.90;;;;;;4971757;28;20431;-75
2022/02/25 14:12:09;;;;;;;3.13;0.90;;;6.50;99.90;;;;;;4971448;28;21028;-74
2022/02/25 14:14:50;;;;;;;5.43;1.40;;;6.60;99.90;;;;;;4970979;28;20407;-75
2022/02/25 14:17:17;;;;;;;3.33;0.80;;;6.60;99.90;;;;;;4971531;28;20473;-74
2022/02/25 14:20:04;;;;;;;6.13;1.10;;;6.50;99.90;;;;;;4971501;28;20445;-74
2022/02/25 14:22:42;;;;;;;3.93;1.07;;;6.50;99.90;;;;;;4971431;28;20753;-75
2022/02/25 14:25:33;;;;;;;8.83;1.20;;;6.60;99.90;;;;;;4971228;28;20935;-74
2022/02/25 14:28:38;;;;;;;5.77;1.23;;;6.80;99.90;;;;;;4971334;28;20803;-75
2022/02/25 14:31:07;;;;;;;9.80;1.37;;;6.70;99.90;;;;;;4970400;28;20444;-74
2022/02/25 14:33:47;;;;;;;6.00;1.47;;;6.70;99.90;;;;;;4970822;28;20437;-74
2022/02/25 14:36:13;;;;;;;4.23;1.00;;;6.70;99.90;;;;;;4970969;28;20552;-75
2022/02/25 14:38:42;;;;;;;8.83;1.57;;;6.70;99.90;;;;;;4971599;28;20445;-74
2022/02/25 14:41:08;;;;;;;5.20;1.00;;;6.70;99.90;;;;;;4970309;28;20440;-74
2022/02/25 14:43:34;;;;;;;12.00;2.90;;;6.80;99.90;;;;;;4969567;28;20410;-74
2022/02/25 14:45:59;;;;;;;4.23;0.90;;;6.90;99.90;;;;;;4971130;28;20418;-75
2022/02/25 14:48:25;;;;;;;4.00;1.07;;;6.90;99.90;;;;;;4973828;28;20179;-75
2022/02/25 14:50:50;;;;;;;5.57;1.50;;;6.90;99.90;;;;;;4974990;28;20241;-75
2022/02/25 14:53:17;;;;;;;3.60;1.00;;;7.00;99.90;;;;;;4973918;28;20281;-74
2022/02/25 14:55:42;;;;;;;2.73;0.90;;;7.10;99.90;;;;;;4975039;28;20184;-75
2022/02/25 14:58:08;;;;;;;4.00;1.00;;;7.20;99.90;;;;;;4974854;28;20469;-75
2022/02/25 15:00:33;;;;;;;4.43;1.03;;;7.10;99.90;;;;;;4974580;28;20179;-74
2022/02/25 15:03:00;;;;;;;2.73;1.13;;;7.10;99.90;;;;;;4974370;28;20195;-75
2022/02/25 15:05:26;;;;;;;5.80;1.17;;;6.90;99.90;;;;;;4975125;28;20545;-75
2022/02/25 15:07:52;;;;;;;9.17;1.87;;;6.90;99.90;;;;;;4974624;28;20424;-75
2022/02/25 15:10:21;;;;;;;3.10;1.57;;;6.90;99.90;;;;;;4973273;28;20205;-75
2022/02/25 15:12:48;;;;;;;2.40;1.03;;;6.80;99.90;;;;;;4974116;28;20442;-74
2022/02/25 15:15:15;;;;;;;8.33;2.00;;;6.90;99.90;;;;;;4974786;28;20425;-74
2022/02/25 15:17:42;;;;;;;9.63;1.60;;;6.70;99.90;;;;;;4974154;28;20613;-75
2022/02/25 15:20:10;;;;;;;3.73;1.10;;;6.70;99.90;;;;;;4974660;28;20405;-75
2022/02/25 15:22:37;;;;;;;3.10;1.40;;;6.70;99.90;;;;;;4974244;28;20441;-74
2022/02/25 15:25:03;;;;;;;5.70;1.07;;;6.80;99.90;;;;;;4972937;28;20406;-76
2022/02/25 15:27:28;;;;;;;2.83;1.10;;;6.70;99.90;;;;;;4942195;28;20469;-74
2022/02/25 15:29:54;;;;;;;2.30;1.37;;;6.70;99.90;;;;;;4973775;28;20470;-74
2022/02/25 15:32:20;;;;;;;7.07;1.00;;;6.70;99.90;;;;;;4973514;28;20226;-74
2022/02/25 15:34:46;;;;;;;2.40;1.00;;;6.70;99.90;;;;;;4973026;28;20219;-73
2022/02/25 15:37:12;;;;;;;7.50;1.30;;;6.70;99.90;;;;;;4973079;28;20475;-74
2022/02/25 15:39:37;;;;;;;2.87;1.13;;;6.80;99.90;;;;;;4973931;28;20463;-74
2022/02/25 15:42:04;;;;;;;3.90;1.10;;;6.70;99.90;;;;;;4973105;28;20208;-74
2022/02/25 15:44:32;;;;;;;7.23;1.93;;;6.80;99.90;;;;;;4973431;28;20269;-74
2022/02/25 15:46:57;;;;;;;4.47;1.17;;;6.80;99.90;;;;;;4974165;28;20442;-74
2022/02/25 15:49:23;;;;;;;2.50;1.30;;;6.80;99.90;;;;;;4973511;28;20811;-74
2022/02/25 15:51:48;;;;;;;5.10;1.50;;;6.70;99.90;;;;;;4973077;28;20207;-74
2022/02/25 15:54:14;;;;;;;6.40;1.23;;;6.70;99.90;;;;;;4972307;28;20218;-74
2022/02/25 15:56:40;;;;;;;1.93;1.10;;;6.70;99.90;;;;;;4973704;28;20223;-74
2022/02/25 15:59:06;;;;;;;10.27;1.17;;;6.70;99.90;;;;;;4972540;28;20556;-75
2022/02/25 16:01:32;;;;;;;5.87;1.30;;;6.60;99.90;;;;;;4973827;28;20433;-73
2022/02/25 16:03:58;;;;;;;9.20;1.50;;;6.50;99.90;;;;;;4972797;28;20199;-74
2022/02/25 16:06:23;;;;;;;5.20;1.30;;;6.50;99.90;;;;;;4972857;28;20573;-74
2022/02/25 16:08:53;;;;;;;4.77;1.60;;;6.50;99.90;;;;;;4972614;28;20455;-74
2022/02/25 16:11:20;;;;;;;4.37;1.40;;;6.50;99.90;;;;;;4972644;28;20219;-75
2022/02/25 16:13:46;;;;;;;12.83;1.87;;;6.50;99.90;;;;;;4972762;28;20468;-75
2022/02/25 16:16:13;;;;;;;7.03;1.20;;;6.40;99.90;;;;;;4973041;28;20480;-75
2022/02/25 16:18:41;;;;;;;2.30;1.30;;;6.40;99.90;;;;;;4973497;28;20521;-75
2022/02/25 16:21:07;;;;;;;6.93;2.10;;;6.30;99.90;;;;;;4971734;28;20956;-75
2022/02/25 16:23:33;;;;;;;3.83;1.53;;;6.30;99.90;;;;;;4972839;28;20450;-75
2022/02/25 16:25:58;;;;;;;5.97;1.40;;;6.20;99.90;;;;;;4958282;28;20458;-73
2022/02/25 16:28:24;;;;;;;6.93;1.20;;;6.10;99.90;;;;;;4973399;28;20187;-74
2022/02/25 16:30:50;;;;;;;4.20;1.37;;;6.10;99.90;;;;;;4971930;28;20180;-74
2022/02/25 16:33:17;;;;;;;3.63;1.43;;;6.00;99.90;;;;;;4972573;28;20195;-73
2022/02/25 16:35:43;;;;;;;6.97;1.43;;;6.00;99.90;;;;;;4972890;28;20504;-74
2022/02/25 16:38:09;;;;;;;7.23;1.20;;;6.00;99.90;;;;;;4973114;28;20828;-74
2022/02/25 16:40:35;;;;;;;9.50;1.60;;;5.90;99.90;;;;;;4973111;28;20421;-73
2022/02/25 16:43:01;;;;;;;4.13;1.70;;;5.90;99.90;;;;;;4972548;28;20191;-74
2022/02/25 16:45:26;;;;;;;4.53;1.70;;;5.80;99.90;;;;;;4973480;28;20448;-73
2022/02/25 16:47:52;;;;;;;11.87;1.90;;;5.80;99.90;;;;;;4971437;28;20233;-73
2022/02/25 16:50:18;;;;;;;4.40;1.00;;;5.70;99.90;;;;;;4972902;28;20182;-73
2022/02/25 16:52:43;;;;;;;2.03;1.20;;;5.60;99.90;;;;;;4972596;28;20561;-73
2022/02/25 16:55:09;;;;;;;5.37;2.00;;;5.60;99.90;;;;;;4972780;28;20179;-73
2022/02/25 16:57:35;;;;;;;8.87;1.40;;;5.60;99.90;;;;;;4972895;28;20211;-73
2022/02/25 17:00:01;;;;;;;5.57;1.27;;;5.50;99.90;;;;;;4972525;28;20182;-73
2022/02/25 17:02:27;;;;;;;10.70;1.50;;;5.50;99.90;;;;;;4972678;28;20194;-74
2022/02/25 17:04:52;;;;;;;5.90;1.70;;;5.50;99.90;;;;;;4971985;28;20421;-74
2022/02/25 17:07:18;;;;;;;3.93;1.40;;;5.50;99.90;;;;;;4972031;28;20570;-74
2022/02/25 17:09:44;;;;;;;9.50;1.70;;;5.40;99.90;;;;;;4972648;28;20216;-74
2022/02/25 17:12:10;;;;;;;5.97;1.90;;;5.40;99.90;;;;;;4971425;28;20201;-73
2022/02/25 17:14:36;;;;;;;5.57;1.67;;;5.40;99.90;;;;;;4971882;28;20507;-74
2022/02/25 17:17:03;;;;;;;5.07;1.57;;;5.30;99.90;;;;;;4972673;28;20464;-75
2022/02/25 17:19:29;;;;;;;17.40;1.60;;;5.30;99.90;;;;;;4963919;28;20423;-76
2022/02/25 17:21:54;;;;;;;5.43;1.80;;;5.30;99.90;;;;;;4952614;28;20423;-71
2022/02/25 17:24:20;;;;;;;11.40;2.23;;;5.30;99.90;;;;;;4952118;28;20283;-72
2022/02/25 17:26:46;;;;;;;6.90;3.73;;;5.20;99.90;;;;;;4953390;28;20174;-72
2022/02/25 17:29:11;;;;;;;5.13;1.90;;;5.10;99.90;;;;;;4952998;28;20192;-72
2022/02/25 17:31:45;;;;;;;4.83;2.20;;;5.10;99.90;;;;;;5066813;28;20535;-70
2022/02/25 17:34:11;;;;;;;6.70;2.37;;;5.00;99.90;;;;;;5046632;28;20483;-70
2022/02/25 17:36:37;;;;;;;9.23;3.00;;;5.00;99.90;;;;;;5047449;28;20178;-70
2022/02/25 17:39:03;;;;;;;4.53;2.20;;;4.80;99.90;;;;;;5047401;28;20178;-70